Weather History for Waseca, MN

Change the Weather History Date:

Friday, April 12, 2013

  Actual Average Record
Temperature  
Mean Temperature 30 °F -  
Max Temperature 33 °F 53 °F 84 °F (1968)
Min Temperature 26 °F 33 °F 13 °F (1939)
Degree Days  
Heating Degree Days 36    
Moisture  
Dew Point 28 °F    
Average Humidity 89    
Maximum Humidity 100    
Minimum Humidity 75    
Precipitation  
Precipitation 0.01 in - - ()
Sea Level Pressure  
Sea Level Pressure 29.74 in    
Wind  
Wind Speed 12 mph (NW)    
Max Wind Speed 18 mph    
Max Gust Speed 22 mph    
Visibility 6 miles    
Events Snow    
Averages and records for this station are not official NWS values.
T = Trace of Precipitation, MM = Missing Value Source: NWS Daily Summary

Daily Weather History Graph

Daily Weather History Graph

Search for Another Location

Airport:

Trip Planner

Search our weather history database for the weather conditions in past years. The results will help you decide how hot, cold, wet, or windy it might be!

Date:

Astronomy

Apr. 12, 2013 Rise Set
Actual Time 6:35 AM CDT 7:55 PM CDT
Civil Twilight 6:05 AM CDT 8:24 PM CDT
Nautical Twilight 5:29 AM CDT 9:01 PM CDT
Astronomical Twilight 4:51 AM CDT 9:39 PM CDT
Moon 7:41 AM CDT (4/12) 10:31 PM CDT (4/12)
Length of Visible Light 14h 19m
Length of Day
13h 19m
Waxing Crescent, 5% of the Moon is Illuminated
Apr 12
Waxing Crescent
Apr 18
First Quarter
Apr 25
Full
May 2
Last Quarter
May 9
New

Hourly Weather History & Observations

Time (CDT) Temp. Windchill Dew Point Humidity Pressure Visibility Wind Dir Wind Speed Gust Speed Precip Events Conditions
12:17 AM 32.0 °F 22.5 °F 30.2 °F 93% 29.64 in 2.5 mi NNE 12.7 mph - N/A Snow Light Snow
12:36 AM 32.0 °F 23.0 °F 30.2 °F 93% 29.64 in 1.5 mi NNE 11.5 mph - N/A Snow Light Snow
12:56 AM 32.0 °F 23.0 °F 30.2 °F 93% 29.65 in 1.8 mi NNE 11.5 mph - N/A Snow Light Snow
1:17 AM 32.0 °F 22.5 °F 30.2 °F 93% 29.65 in 2.0 mi NNE 12.7 mph - N/A Snow Light Snow
1:36 AM 30.2 °F 21.3 °F 28.4 °F 93% 29.65 in 2.5 mi North 10.4 mph - N/A Snow Light Snow
1:56 AM 30.2 °F 20.2 °F 28.4 °F 93% 29.65 in 1.5 mi North 12.7 mph - N/A Snow Light Snow
2:17 AM 30.2 °F 20.2 °F 28.4 °F 93% 29.65 in 1.0 mi North 12.7 mph - N/A Snow Light Snow
2:36 AM 30.2 °F 20.8 °F 28.4 °F 93% 29.65 in 2.0 mi North 11.5 mph - N/A Snow Light Snow
2:56 AM 30.2 °F 20.2 °F 28.4 °F 93% 29.64 in 2.5 mi North 12.7 mph - N/A Snow Light Snow
3:17 AM 30.2 °F 19.8 °F 28.4 °F 93% 29.64 in 7.0 mi North 13.8 mph - N/A   Overcast
3:36 AM 30.2 °F 21.3 °F 28.4 °F 93% 29.64 in 10.0 mi North 10.4 mph - N/A   Overcast
3:56 AM 30.2 °F 20.8 °F 28.4 °F 93% 29.65 in 10.0 mi North 11.5 mph - N/A   Overcast
4:17 AM 30.2 °F 21.3 °F 28.4 °F 93% 29.66 in 10.0 mi North 10.4 mph - N/A   Overcast
4:36 AM 30.2 °F 21.3 °F 28.4 °F 93% 29.66 in 10.0 mi North 10.4 mph - N/A   Overcast
4:56 AM 30.2 °F 22.6 °F 28.4 °F 93% 29.66 in 7.0 mi North 8.1 mph - N/A Snow Light Snow
5:17 AM 30.2 °F 21.9 °F 28.4 °F 93% 29.66 in 5.0 mi NNW 9.2 mph - N/A Snow Light Snow
5:36 AM 30.2 °F 21.3 °F 28.4 °F 93% 29.66 in 4.0 mi NNW 10.4 mph - N/A Snow Light Snow
5:56 AM 30.2 °F 21.9 °F 28.4 °F 93% 29.67 in 5.0 mi NNW 9.2 mph - N/A Snow Light Snow
6:17 AM 30.2 °F 21.9 °F 28.4 °F 93% 29.67 in 4.0 mi NNW 9.2 mph - N/A Snow Light Snow
6:36 AM 28.4 °F 20.4 °F 26.6 °F 93% 29.67 in 2.5 mi NW 8.1 mph - N/A Snow Light Snow
6:56 AM 26.6 °F 17.5 °F 26.6 °F 100% 29.67 in 3.0 mi NW 9.2 mph - N/A Snow Light Snow
7:17 AM 26.6 °F 16.8 °F 26.6 °F 100% 29.68 in 4.0 mi NW 10.4 mph - N/A   Overcast
7:36 AM 26.6 °F 16.8 °F 26.6 °F 100% 29.68 in 7.0 mi NNW 10.4 mph - N/A   Overcast
7:56 AM 26.6 °F 17.5 °F 26.6 °F 100% 29.69 in 7.0 mi NNW 9.2 mph - N/A Snow Light Snow
8:16 AM 26.6 °F 17.5 °F 26.6 °F 100% 29.69 in 1.5 mi NNW 9.2 mph - N/A Snow Light Snow
8:37 AM 28.4 °F 21.2 °F 26.6 °F 93% 29.70 in 1.2 mi NW 6.9 mph - N/A Snow Light Snow
8:56 AM 30.2 °F 22.6 °F 28.4 °F 93% 29.70 in 3.0 mi NW 8.1 mph - N/A Snow Light Snow
9:16 AM 30.2 °F 21.9 °F 26.6 °F 86% 29.70 in 2.5 mi NNW 9.2 mph - N/A Snow Light Snow
9:56 AM 30.2 °F 21.9 °F 26.6 °F 86% 29.71 in 3.0 mi WNW 9.2 mph - N/A   Overcast
10:17 AM 30.2 °F 21.3 °F 26.6 °F 86% 29.72 in 7.0 mi WNW 10.4 mph - N/A   Overcast
10:37 AM 32.0 °F 23.6 °F 28.4 °F 87% 29.72 in 10.0 mi NW 10.4 mph - N/A   Overcast
10:56 AM 32.0 °F 23.0 °F 28.4 °F 87% 29.73 in 10.0 mi NW 11.5 mph - N/A   Overcast
11:17 AM 32.0 °F 23.6 °F 28.4 °F 87% 29.74 in 10.0 mi WNW 10.4 mph - N/A   Overcast
11:37 AM 32.0 °F 23.0 °F 28.4 °F 87% 29.74 in 10.0 mi NW 11.5 mph - N/A   Overcast
11:56 AM 32.0 °F 23.0 °F 28.4 °F 87% 29.74 in 10.0 mi WNW 11.5 mph - N/A   Overcast
12:17 PM 32.0 °F 22.1 °F 26.6 °F 80% 29.75 in 10.0 mi WNW 13.8 mph - N/A   Overcast
12:36 PM 32.0 °F 23.6 °F 26.6 °F 80% 29.75 in 10.0 mi West 10.4 mph - N/A   Overcast
12:56 PM 32.0 °F 21.2 °F 26.6 °F 80% 29.76 in 10.0 mi WNW 16.1 mph - N/A   Overcast
1:17 PM 32.0 °F 20.8 °F 24.8 °F 75% 29.76 in 10.0 mi WNW 17.3 mph - N/A   Overcast
1:36 PM 32.0 °F 21.6 °F 24.8 °F 75% 29.76 in 10.0 mi WNW 15.0 mph - N/A   Overcast
1:56 PM 32.0 °F 21.6 °F 24.8 °F 75% 29.77 in 10.0 mi West 15.0 mph - N/A   Overcast
2:17 PM 32.0 °F 22.1 °F 26.6 °F 80% 29.77 in 10.0 mi West 13.8 mph - N/A   Overcast
2:36 PM 32.0 °F 21.6 °F 28.4 °F 87% 29.77 in 10.0 mi WNW 15.0 mph - N/A   Overcast
2:56 PM 32.0 °F 21.6 °F 28.4 °F 87% 29.77 in 10.0 mi West 15.0 mph - 0.01 in   Overcast
3:17 PM 33.8 °F 23.5 °F 28.4 °F 81% 29.77 in 10.0 mi WNW 16.1 mph - N/A   Mostly Cloudy
3:36 PM 32.0 °F 20.8 °F 28.4 °F 87% 29.78 in 10.0 mi WNW 17.3 mph - N/A   Overcast
3:56 PM 32.0 °F 21.6 °F 28.4 °F 87% 29.78 in 10.0 mi West 15.0 mph - N/A   Overcast
4:17 PM 32.0 °F 21.2 °F 26.6 °F 80% 29.78 in 10.0 mi West 16.1 mph - N/A   Overcast
4:36 PM 33.8 °F 22.8 °F 28.4 °F 81% 29.79 in 10.0 mi West 18.4 mph - N/A   Overcast
4:56 PM 32.0 °F 21.2 °F 26.6 °F 80% 29.79 in 10.0 mi WNW 16.1 mph 21.9 mph N/A   Overcast
5:16 PM 32.0 °F 20.8 °F 26.6 °F 80% 29.80 in 10.0 mi WNW 17.3 mph - N/A   Overcast
5:36 PM 32.0 °F 20.8 °F 28.4 °F 87% 29.80 in 10.0 mi WNW 17.3 mph - N/A   Overcast
5:57 PM 32.0 °F 21.6 °F 26.6 °F 80% 29.81 in 10.0 mi WNW 15.0 mph - N/A   Overcast
6:16 PM 32.0 °F 21.2 °F 26.6 °F 80% 29.82 in 10.0 mi WNW 16.1 mph - N/A Snow Light Snow
6:37 PM 32.0 °F 22.5 °F 26.6 °F 80% 29.82 in 7.0 mi West 12.7 mph 18.4 mph N/A Snow Light Snow
6:56 PM 32.0 °F 21.6 °F 28.4 °F 87% 29.83 in 5.0 mi West 15.0 mph - N/A Snow Light Snow
7:16 PM 32.0 °F 21.2 °F 28.4 °F 87% 29.83 in 4.0 mi West 16.1 mph - N/A Snow Light Snow
7:37 PM 32.0 °F 23.0 °F 28.4 °F 87% 29.83 in 2.5 mi West 11.5 mph - N/A Snow Light Snow
7:56 PM 32.0 °F 23.6 °F 28.4 °F 87% 29.83 in 2.5 mi West 10.4 mph - N/A Snow Light Snow
8:16 PM 32.0 °F 22.5 °F 28.4 °F 87% 29.83 in 2.5 mi West 12.7 mph - N/A Snow Light Snow
8:37 PM 32.0 °F 21.2 °F 28.4 °F 87% 29.84 in 4.0 mi West 16.1 mph - N/A Snow Light Snow
8:56 PM 32.0 °F 22.1 °F 30.2 °F 93% 29.84 in 4.0 mi West 13.8 mph - N/A Snow Light Snow
9:16 PM 32.0 °F 22.1 °F 30.2 °F 93% 29.84 in 7.0 mi West 13.8 mph - N/A Snow Light Snow
9:37 PM 32.0 °F 22.1 °F 30.2 °F 93% 29.85 in 7.0 mi WNW 13.8 mph - N/A Snow Light Snow
9:56 PM 32.0 °F 21.6 °F 30.2 °F 93% 29.85 in 7.0 mi WNW 15.0 mph - N/A Snow Light Snow
10:17 PM 32.0 °F 22.1 °F 30.2 °F 93% 29.86 in 5.0 mi West 13.8 mph - N/A Snow Light Snow
10:37 PM 32.0 °F 22.5 °F 30.2 °F 93% 29.86 in 7.0 mi WNW 12.7 mph - N/A Snow Light Snow
10:56 PM 32.0 °F 22.1 °F 30.2 °F 93% 29.86 in 7.0 mi WNW 13.8 mph - N/A Snow Light Snow
11:16 PM 32.0 °F 22.5 °F 30.2 °F 93% 29.85 in 5.0 mi West 12.7 mph - N/A Snow Light Snow
11:36 PM 32.0 °F 22.5 °F 30.2 °F 93% 29.85 in 3.0 mi West 12.7 mph - N/A Snow Light Snow
11:56 PM 32.0 °F 22.5 °F 30.2 °F 93% 29.85 in 2.0 mi West 12.7 mph - N/A Snow Light Snow